Saratoga, WY

3:07 PM MDT on October 23, 2014 (GMT -0600)
KTGA - KBDY Radio | Change Station
CLOSE
Current Station
Personal Weather Station
Location: Saratoga, WY
Elevation: 2068 m
Nearby Weather Stations

Elev 2068 m 41.45 °N, 106.81 °W | Updated 2 minutes ago

Clear
Clear
16.8 °C
Feels Like 16.8 °C
N
12.9
Wind Variable Wind from West
Gusts 12.9 km/h

Today
High -- | Low -- °C
--% Chance of Precip.
Yesterday
High -- | Low -- °C
Precip. -- mm
7:28 AM 6:14 PM
Waning Crescent, 0% visible
Pressure 1023 hPa
Visibility 16.1 kilometers
Clouds Clear
Dew Point -1 °C
Humidity 30%
Rainfall 0 mm
Snow Depth 0 in
UV 3 out of 12
Pollen 3.00 out of 12
Air Quality Not available.
Flu Activity Sporadic
METAR KSAA 232055Z AUTO 25018G22KT 10SM CLR 16/M01 A3020 RMK AO2

More Conditions Fewer Conditions

Pressure 1023 hPa
Visibility 16.1 kilometers
Clouds Clear
Dew Point -1 °C
Humidity 30%
Rainfall 0 mm
Snow Depth 0 in
UV 3 out of 12
Pollen 3.00 out of 12
Air Quality Not available.
Flu Activity Sporadic
METAR KSAA 232055Z AUTO 25018G22KT 10SM CLR 16/M01 A3020 RMK AO2

More Conditions Fewer Conditions

10-Day Weather Forecast

Almanac

Astronomy

Oct. 23, 2014 Rise Set
Actual Time 7:28 AM MDT 6:14 PM MDT
Civil Twilight 6:59 AM MDT 6:42 PM MDT
Nautical Twilight 6:27 AM MDT 7:14 PM MDT
Astronomical Twilight 5:55 AM MDT 7:46 PM MDT
Moon 7:10 AM MDT 6:17 PM MDT
Length of Visible Light 11h 42m
Length of Day
10h 45m
Tomorrow will be 2m 35s shorter.
Waning Crescent, 0% of the Moon is Illuminated
Today
Waning Crescent
Oct 23
New
Oct 30
First Quarter
Nov 6
Full
Nov 14
Last Quarter

Today's Extremes

State Highs State Lows

Community

WunderPhotos

Upload Photos

1,764,371 photos uploaded!

WunderBlogs® & News

By Dr. Jeff Masters
Director of Meteorology, Weather Underground
By Kari Strenfel
Meteorologist, Weather Underground
By Christopher C. Burt
Weather Historian, Weather Underground
October 23, 2014
October 23, 2014
October 23, 2014

Nearby

Snow Depth

Station Depth Elevation
South Brush Creek 0 in 8440 ft
Old Battle 1 in 9920 ft
North French Creek 0 in 10130 ft
Sand Lake 4 in 10050 ft
Brooklyn Lake 0 in 10220 ft

Earthquake Activity

City Distance Mag. Time & Date
No recent earthquake activity has been reported nearby.
Minimum magnitude displayed is 2.5.

Coastal Water Temperatures

Place Temperature
No Stations Reporting

Nearby Weather Stations